Search for airport 
image banner adimage banner adimage banner ad
image banner ad

55CN - Sunset-Glendale

Located in Los Angeles, United States

ICAO - 55CN, IATA -

Data provided by Airmate  

General information

Coordinates: N34°4'40" W118°15'40"
Elevation is 556 feet MSL.
Magnetic variation is 14° East
View others Airports in California

Operational data

Special qualification required
Current time UTC:
Current local time:
Weather at : KBUR - Bob Hope ( 16 km )
METAR: KBUR 240853Z 14005KT 10SM CLR 16/13 A2999 RMK AO2 SLP144 T01610133 50000 $
TAF: KBUR 240544Z 2406/2506 VRB03KT P6SM SKC FM242000 18010KT P6SM SKC FM250400 14007KT P6SM SKC
View NOTAMs / SUP AIP / TFR affecting this airport [VIEW]
Communications frequencies: [VIEW]

Runways:

Airport contact information

Address: Los Angeles United States

Satellite view of 55CN